Meridian — EI6085 — position and weather

sailwx.info

Track history (hours):
 
Tides and Currents Weather Stations Pressure Air Temp Water Temp Dewpoint Dewpoint Depression Visibility Wind Speed Wind Dir Waves Ship Positions

Meridian

Last reported at 2014-Oct-23 15:27 UTC. Time now 2014-Oct-24 08:34 UTC.
Position N 54°38' W 008°27'.

Length 12 m.

Type: Fishing. MMSI: 250107450.

Date/timePositionNaut miles runAvg speedWind from/ knotsBaromVisibWave heightAir tempDewpointWater temp
2014-Oct-23 15:27N 54°38' W 008°27'0 0.2
2014-Oct-23 14:33N 54°38' W 008°27'0 0.1
2014-Oct-23 13:33N 54°38' W 008°27'0 0.0
2014-Oct-23 12:33N 54°38' W 008°27'0 0.0
2014-Oct-23 11:33N 54°38' W 008°27'0 0.0
2014-Oct-23 10:31N 54°38' W 008°27'  
2014-Oct-17 12:04N 54°38' W 008°27'4 6.8
2014-Oct-17 11:32N 54°36' W 008°32'3 3.1
2014-Oct-17 10:32N 54°36' W 008°37'6 5.5
2014-Oct-17 09:30N 54°31' W 008°31'4 4.1
2014-Oct-17 08:29N 54°35' W 008°33'4 0.3
2014-Oct-16 16:30N 54°37' W 008°26'9 1.6
2014-Oct-16 10:32N 54°37' W 008°43'8 8.5
2014-Oct-16 09:32N 54°36' W 008°28'2 0.1
2014-Oct-15 15:16N 54°38' W 008°27'0 0.0
2014-Oct-15 13:17N 54°38' W 008°27'0 0.0
2014-Oct-15 11:31N 54°38' W 008°27'0 0.0
2014-Oct-15 10:31N 54°38' W 008°27'1 0.0
2014-Oct-14 16:33N 54°37' W 008°26'2 1.8
2014-Oct-14 15:30N 54°36' W 008°29'6 5.8
2014-Oct-14 14:33N 54°37' W 008°39'2 0.6
2014-Oct-14 11:29N 54°37' W 008°42'9 9.1
2014-Oct-14 10:31N 54°37' W 008°27'1 0.6
2014-Oct-14 09:33N 54°37' W 008°26'1 1.2
2014-Oct-14 08:26N 54°38' W 008°27'0 0.0
2014-Oct-13 18:30N 54°38' W 008°27'10 9.6
2014-Oct-13 17:30N 54°36' W 008°43'  
Track history (hours):
 
Tides and Currents Weather Stations Pressure Air Temp Water Temp Dewpoint Dewpoint Depression Visibility Wind Speed Wind Dir Waves Ship Positions

Meridian

Last reported at 2014-Oct-23 15:27 UTC. Time now 2014-Oct-24 08:34 UTC.
Position N 54°38' W 008°27'.

Length 12 m.

Type: Fishing. MMSI: 250107450.

Date/timePositionNaut miles runAvg speedWind from/ knotsBaromVisibWave heightAir tempDewpointWater temp
2014-Oct-23 15:27N 54°38' W 008°27'0 0.2
2014-Oct-23 14:33N 54°38' W 008°27'0 0.1
2014-Oct-23 13:33N 54°38' W 008°27'0 0.0
2014-Oct-23 12:33N 54°38' W 008°27'0 0.0
2014-Oct-23 11:33N 54°38' W 008°27'0 0.0
2014-Oct-23 10:31N 54°38' W 008°27'  
2014-Oct-17 12:04N 54°38' W 008°27'4 6.8
2014-Oct-17 11:32N 54°36' W 008°32'3 3.1
2014-Oct-17 10:32N 54°36' W 008°37'6 5.5
2014-Oct-17 09:30N 54°31' W 008°31'4 4.1
2014-Oct-17 08:29N 54°35' W 008°33'4 0.3
2014-Oct-16 16:30N 54°37' W 008°26'9 1.6
2014-Oct-16 10:32N 54°37' W 008°43'8 8.5
2014-Oct-16 09:32N 54°36' W 008°28'2 0.1
2014-Oct-15 15:16N 54°38' W 008°27'0 0.0
2014-Oct-15 13:17N 54°38' W 008°27'0 0.0
2014-Oct-15 11:31N 54°38' W 008°27'0 0.0
2014-Oct-15 10:31N 54°38' W 008°27'1 0.0
2014-Oct-14 16:33N 54°37' W 008°26'2 1.8
2014-Oct-14 15:30N 54°36' W 008°29'6 5.8
2014-Oct-14 14:33N 54°37' W 008°39'2 0.6
2014-Oct-14 11:29N 54°37' W 008°42'9 9.1
2014-Oct-14 10:31N 54°37' W 008°27'1 0.6
2014-Oct-14 09:33N 54°37' W 008°26'1 1.2
2014-Oct-14 08:26N 54°38' W 008°27'0 0.0
2014-Oct-13 18:30N 54°38' W 008°27'10 9.6
2014-Oct-13 17:30N 54°36' W 008°43'  

Dump ship's entire track history